Time;durP1;ratioP1;P1;durP2;ratioP2;P2;SDS_P1;SDS_P2;PMS_P1;PMS_P2;Temp;Humidity;BMP_temperature;BMP_pressure;BME280_temperature;BME280_humidity;BME280_pressure;Samples;Min_cycle;Max_cycle;Signal;HPM_P1;HPM_P2
2023/02/25 00:02:30;;;;;;;8.95;2.08;;;;;;;5.27;100.00;100739.09;5262672;28;20031;-75
2023/02/25 00:05:05;;;;;;;10.40;2.72;;;;;;;5.32;100.00;100744.84;5265719;28;20052;-74
2023/02/25 00:07:37;;;;;;;7.65;2.10;;;;;;;5.18;100.00;100750.06;5260296;28;20029;-74
2023/02/25 00:10:11;;;;;;;9.52;1.98;;;;;;;5.23;100.00;100743.66;5264193;28;20386;-75
2023/02/25 00:12:43;;;;;;;9.73;2.08;;;;;;;5.17;100.00;100756.19;5264001;28;20052;-75
2023/02/25 00:15:14;;;;;;;7.10;1.75;;;;;;;5.25;100.00;100746.97;5267716;28;20072;-74
2023/02/25 00:17:47;;;;;;;8.57;1.90;;;;;;;5.17;100.00;100748.41;5262841;28;20364;-75
2023/02/25 00:20:21;;;;;;;6.82;1.70;;;;;;;5.10;100.00;100738.41;5261973;28;20020;-74
2023/02/25 00:22:52;;;;;;;7.60;1.88;;;;;;;5.09;100.00;100731.56;5264095;28;20025;-75
2023/02/25 00:25:24;;;;;;;7.00;1.42;;;;;;;5.08;100.00;100737.69;5262627;28;20024;-74
2023/02/25 00:27:56;;;;;;;13.35;2.45;;;;;;;5.13;100.00;100739.97;5266966;28;20393;-74
2023/02/25 00:30:27;;;;;;;7.75;2.15;;;;;;;4.97;100.00;100740.13;5262705;28;20094;-75
2023/02/25 00:32:58;;;;;;;10.65;2.10;;;;;;;4.96;100.00;100741.03;5262788;28;20024;-74
2023/02/25 00:35:29;;;;;;;8.48;2.10;;;;;;;4.93;100.00;100738.66;5263784;28;20165;-75
2023/02/25 00:38:01;;;;;;;9.80;2.22;;;;;;;4.93;100.00;100737.81;5267248;28;20090;-75
2023/02/25 00:40:36;;;;;;;9.57;1.95;;;;;;;4.90;100.00;100730.22;5245111;28;20429;-74
2023/02/25 00:43:07;;;;;;;11.13;2.15;;;;;;;4.82;100.00;100733.31;5267757;28;20043;-75
2023/02/25 00:45:41;;;;;;;9.93;2.28;;;;;;;4.80;100.00;100724.75;5270733;28;20033;-74
2023/02/25 00:48:13;;;;;;;8.85;1.70;;;;;;;4.75;100.00;100732.84;5268588;28;20052;-74
2023/02/25 00:50:44;;;;;;;13.05;2.40;;;;;;;4.77;100.00;100737.91;5248569;28;20051;-75
2023/02/25 00:53:15;;;;;;;7.45;1.70;;;;;;;4.81;100.00;100737.66;5268461;28;20029;-75
2023/02/25 00:55:46;;;;;;;10.68;2.63;;;;;;;4.81;100.00;100742.84;5266598;28;20034;-74
2023/02/25 00:58:18;;;;;;;9.13;1.85;;;;;;;4.82;100.00;100744.50;5267294;28;20102;-75
2023/02/25 01:00:49;;;;;;;11.48;2.22;;;;;;;4.80;100.00;100732.53;5266443;28;20039;-74
2023/02/25 01:03:21;;;;;;;8.05;2.13;;;;;;;4.81;100.00;100737.66;5269951;28;20025;-74
2023/02/25 01:05:53;;;;;;;9.60;2.80;;;;;;;4.80;100.00;100735.97;5266710;28;20029;-74
2023/02/25 01:08:24;;;;;;;9.25;2.50;;;;;;;4.80;100.00;100743.75;5266715;28;20044;-75
2023/02/25 01:10:55;;;;;;;13.30;2.42;;;;;;;4.85;100.00;100733.13;5247963;28;20486;-75
2023/02/25 01:13:27;;;;;;;8.52;1.92;;;;;;;4.90;100.00;100749.22;5266284;28;20021;-74
2023/02/25 01:15:58;;;;;;;11.57;2.00;;;;;;;4.88;100.00;100746.69;5271806;28;20020;-74
2023/02/25 01:18:30;;;;;;;13.38;2.55;;;;;;;4.90;100.00;100745.78;5267644;28;20505;-74
2023/02/25 01:21:01;;;;;;;11.38;2.78;;;;;;;4.87;100.00;100736.44;5265813;28;20032;-74
2023/02/25 01:23:33;;;;;;;9.32;2.45;;;;;;;4.90;100.00;100748.41;5254307;28;20515;-75
2023/02/25 01:26:04;;;;;;;10.13;2.40;;;;;;;4.89;100.00;100734.59;5272504;28;20027;-74
2023/02/25 01:28:35;;;;;;;9.90;1.95;;;;;;;4.86;100.00;100739.97;5247851;28;20028;-75
2023/02/25 01:31:15;;;;;;;17.10;3.28;;;;;;;4.90;100.00;100732.81;5269253;28;20025;-74
2023/02/25 01:33:47;;;;;;;12.55;2.90;;;;;;;4.78;100.00;100735.25;5269355;28;20483;-75
2023/02/25 01:36:18;;;;;;;8.43;2.28;;;;;;;4.84;100.00;100745.22;5264416;28;20175;-74
2023/02/25 01:38:49;;;;;;;15.55;2.78;;;;;;;4.85;100.00;100748.69;5271698;28;20028;-74
2023/02/25 01:41:22;;;;;;;15.73;2.00;;;;;;;4.87;100.00;100741.63;5265542;28;21019;-74
2023/02/25 01:44:07;;;;;;;9.93;2.47;;;;;;;4.97;100.00;100736.69;5270512;28;20016;-75
2023/02/25 01:46:40;;;;;;;11.48;3.05;;;;;;;4.92;100.00;100743.91;5264135;28;20032;-74
2023/02/25 01:49:17;;;;;;;9.57;2.65;;;;;;;4.98;100.00;100749.56;5264522;28;20028;-75
2023/02/25 01:51:53;;;;;;;11.43;3.05;;;;;;;4.92;100.00;100746.50;5269793;28;20487;-75
2023/02/25 01:54:24;;;;;;;13.88;2.70;;;;;;;4.91;100.00;100756.06;5265242;28;20409;-75
2023/02/25 01:56:56;;;;;;;15.95;3.10;;;;;;;4.97;100.00;100760.06;5268732;28;20024;-74
2023/02/25 01:59:28;;;;;;;10.65;2.35;;;;;;;5.00;100.00;100757.25;5267043;28;20513;-74
2023/02/25 02:02:00;;;;;;;13.07;2.97;;;;;;;5.01;100.00;100764.97;5265230;28;20040;-75
2023/02/25 02:04:31;;;;;;;15.38;3.10;;;;;;;4.99;100.00;100761.63;5248374;28;20506;-75
2023/02/25 02:07:03;;;;;;;13.27;3.15;;;;;;;4.96;100.00;100760.97;5266754;28;20036;-75
2023/02/25 02:09:35;;;;;;;14.52;2.80;;;;;;;5.01;100.00;100756.34;5266958;28;20497;-74
2023/02/25 02:12:07;;;;;;;9.35;3.13;;;;;;;4.92;100.00;100751.72;5265789;28;20061;-75
2023/02/25 02:14:40;;;;;;;9.63;2.22;;;;;;;4.97;100.00;100753.09;5267164;28;20516;-74
2023/02/25 02:17:22;;;;;;;13.13;2.30;;;;;;;5.00;100.00;100752.06;5266020;28;20037;-75
2023/02/25 02:20:12;;;;;;;11.07;2.78;;;;;;;4.97;100.00;100763.50;5262639;28;20048;-75
2023/02/25 02:22:53;;;;;;;10.32;2.40;;;;;;;4.91;100.00;100753.47;5246426;28;20052;-74
2023/02/25 02:25:27;;;;;;;11.93;2.65;;;;;;;4.85;100.00;100759.06;5268181;28;20025;-75
2023/02/25 02:28:25;;;;;;;11.93;2.55;;;;;;;4.99;100.00;100753.81;5266508;28;20115;-75
2023/02/25 02:31:27;;;;;;;10.73;2.67;;;;;;;4.95;100.00;100761.91;5260038;28;20036;-75
2023/02/25 02:34:27;;;;;;;15.00;2.85;;;;;;;4.83;100.00;100748.75;5263683;28;20029;-75
2023/02/25 02:37:22;;;;;;;12.32;2.35;;;;;;;4.88;100.00;100756.25;5264533;28;20454;-75
2023/02/25 02:40:15;;;;;;;16.20;2.90;;;;;;;4.73;100.00;100759.81;5243603;28;20017;-75
2023/02/25 02:42:59;;;;;;;12.40;3.08;;;;;;;4.62;100.00;100750.94;5263956;28;20021;-75
2023/02/25 02:45:37;;;;;;;;;;;;;;;5.09;100.00;100757.53;5264120;28;20032;-75
2023/02/25 02:48:28;;;;;;;21.35;3.30;;;;;;;4.65;100.00;100747.31;5268602;28;19940;-75
2023/02/25 02:51:02;;;;;;;13.93;3.17;;;;;;;4.63;100.00;100762.16;5267774;28;20021;-75
2023/02/25 02:53:45;;;;;;;14.95;2.95;;;;;;;4.70;100.00;100760.00;5240860;28;20497;-75
2023/02/25 02:56:18;;;;;;;;;;;;;;;5.13;100.00;100758.97;5267925;28;20043;-75
2023/02/25 02:59:04;;;;;;;12.05;2.33;;;;;;;4.76;100.00;100770.00;5262566;28;20016;-75
2023/02/25 03:01:45;;;;;;;11.05;1.90;;;;;;;4.75;100.00;100769.16;5262617;28;20028;-75
2023/02/25 03:04:22;;;;;;;12.93;3.75;;;;;;;4.60;100.00;100763.16;5254272;28;20139;-75
2023/02/25 03:07:04;;;;;;;11.65;2.15;;;;;;;4.60;100.00;100765.75;5266322;28;20017;-75
2023/02/25 03:09:58;;;;;;;8.85;2.25;;;;;;;4.67;100.00;100763.63;5266312;28;20029;-75
2023/02/25 03:12:30;;;;;;;14.20;3.55;;;;;;;4.57;100.00;100771.13;5269068;28;20020;-74
2023/02/25 03:15:01;;;;;;;20.90;3.30;;;;;;;4.62;100.00;100768.25;5264449;28;20029;-75
2023/02/25 03:17:40;;;;;;;17.63;2.90;;;;;;;4.76;100.00;100765.63;5268421;28;20078;-75
2023/02/25 03:20:24;;;;;;;14.05;2.72;;;;;;;4.90;100.00;100780.38;5263280;28;20309;-75
2023/02/25 03:23:00;;;;;;;10.43;2.67;;;;;;;4.73;100.00;100760.63;5267131;28;20396;-75
2023/02/25 03:25:49;;;;;;;10.52;2.53;;;;;;;4.80;100.00;100766.28;5261799;28;20741;-75
2023/02/25 03:28:31;;;;;;;16.85;3.17;;;;;;;4.91;100.00;100763.84;5261409;28;20034;-75
2023/02/25 03:31:20;;;;;;;17.83;2.50;;;;;;;4.97;100.00;100760.88;5264389;28;20564;-75
2023/02/25 03:34:12;;;;;;;11.75;2.30;;;;;;;5.09;100.00;100761.88;5247508;28;20224;-75
2023/02/25 03:36:51;;;;;;;13.95;3.30;;;;;;;4.94;100.00;100763.69;5263456;28;20066;-75
2023/02/25 03:39:27;;;;;;;18.63;2.60;;;;;;;4.92;100.00;100775.91;5266733;28;20033;-75
2023/02/25 03:42:01;;;;;;;15.18;2.95;;;;;;;4.85;100.00;100772.03;5257868;28;20024;-75
2023/02/25 03:44:35;;;;;;;;;;;;;;;5.41;100.00;100770.19;5258874;28;20131;-75
2023/02/25 03:47:08;;;;;;;12.80;2.78;;;;;;;4.83;100.00;100766.09;5265739;28;19938;-75
2023/02/25 03:49:49;;;;;;;12.63;2.85;;;;;;;4.93;100.00;100763.78;5245427;28;20569;-75
2023/02/25 03:52:22;;;;;;;14.20;3.00;;;;;;;4.79;100.00;100772.41;5264720;28;20041;-75
2023/02/25 03:54:56;;;;;;;13.40;1.95;;;;;;;4.68;100.00;100765.28;5266228;28;20054;-74
2023/02/25 03:57:37;;;;;;;16.15;3.05;;;;;;;4.80;100.00;100776.66;5262650;28;20477;-75
2023/02/25 04:00:24;;;;;;;13.90;3.90;;;;;;;4.82;100.00;100769.63;5257103;28;20139;-75
2023/02/25 04:02:56;;;;;;;17.10;3.92;;;;;;;4.64;100.00;100780.22;5265406;28;20113;-75
2023/02/25 04:05:27;;;;;;;11.70;2.90;;;;;;;4.63;100.00;100775.94;5247850;28;20074;-74
2023/02/25 04:07:59;;;;;;;12.13;3.22;;;;;;;4.65;100.00;100781.03;5263391;28;20028;-74
2023/02/25 04:10:30;;;;;;;18.20;3.13;;;;;;;4.65;100.00;100781.03;5245453;28;20085;-74
2023/02/25 04:13:01;;;;;;;15.70;3.30;;;;;;;4.69;100.00;100785.09;5266808;28;20415;-75
2023/02/25 04:15:32;;;;;;;17.88;3.28;;;;;;;4.71;100.00;100779.84;5259706;28;20120;-75
2023/02/25 04:18:04;;;;;;;21.35;3.15;;;;;;;4.67;100.00;100773.19;5266940;28;20093;-75
2023/02/25 04:20:35;;;;;;;13.02;2.50;;;;;;;4.66;100.00;100774.09;5264855;28;20047;-75
2023/02/25 04:23:10;;;;;;;20.88;3.67;;;;;;;4.76;100.00;100790.75;5269269;28;20154;-74
2023/02/25 04:25:42;;;;;;;16.00;2.55;;;;;;;4.71;100.00;100775.47;5269886;28;20107;-74
2023/02/25 04:28:13;;;;;;;18.15;3.17;;;;;;;4.83;100.00;100787.69;5248182;28;20020;-74
2023/02/25 04:30:45;;;;;;;16.88;3.15;;;;;;;4.85;100.00;100788.44;5270378;28;20346;-75
2023/02/25 04:33:16;;;;;;;15.35;2.95;;;;;;;4.85;100.00;100792.81;5267090;28;20482;-74
2023/02/25 04:35:47;;;;;;;13.55;2.83;;;;;;;4.88;100.00;100793.44;5264273;28;20032;-75
2023/02/25 04:38:19;;;;;;;12.15;2.90;;;;;;;4.88;100.00;100790.00;5267287;28;20032;-75
2023/02/25 04:40:51;;;;;;;20.60;3.65;;;;;;;4.93;100.00;100793.16;5265029;28;20025;-75
2023/02/25 04:43:22;;;;;;;16.00;2.55;;;;;;;4.97;100.00;100786.03;5268888;28;20081;-75
2023/02/25 04:45:53;;;;;;;20.98;3.28;;;;;;;4.97;100.00;100788.63;5266584;28;20029;-75
2023/02/25 04:48:26;;;;;;;9.25;1.98;;;;;;;4.96;100.00;100787.75;5249924;28;20054;-75
2023/02/25 04:51:01;;;;;;;17.60;2.58;;;;;;;5.07;100.00;100795.72;5264803;28;20025;-74
2023/02/25 04:53:33;;;;;;;14.38;3.10;;;;;;;4.98;100.00;100801.50;5267321;28;20093;-74
2023/02/25 04:56:06;;;;;;;15.30;3.17;;;;;;;5.03;100.00;100799.44;5247917;28;20036;-75
2023/02/25 04:58:38;;;;;;;13.55;2.97;;;;;;;4.93;100.00;100802.72;5269292;28;20583;-75
2023/02/25 05:01:10;;;;;;;12.52;3.03;;;;;;;4.86;100.00;100784.91;5268961;28;20029;-75
2023/02/25 05:03:42;;;;;;;17.33;3.35;;;;;;;5.03;100.00;100804.63;5263571;28;20035;-74
2023/02/25 05:06:13;;;;;;;12.93;3.10;;;;;;;5.00;100.00;100804.84;5266929;28;20080;-75
2023/02/25 05:08:45;;;;;;;19.98;3.63;;;;;;;4.98;100.00;100800.66;5270103;28;20456;-75
2023/02/25 05:11:18;;;;;;;12.10;3.28;;;;;;;4.96;100.00;100794.72;5268544;28;20175;-74
2023/02/25 05:13:49;;;;;;;12.23;2.58;;;;;;;4.94;100.00;100799.19;5247812;28;20102;-74
2023/02/25 05:16:21;;;;;;;11.77;3.08;;;;;;;4.87;100.00;100791.78;5269971;28;20070;-74
2023/02/25 05:18:53;;;;;;;15.20;2.70;;;;;;;4.84;100.00;100793.72;5269383;28;20037;-75
2023/02/25 05:21:25;;;;;;;13.13;2.90;;;;;;;4.87;100.00;100788.34;5247999;28;20027;-74
2023/02/25 05:23:57;;;;;;;13.18;3.05;;;;;;;4.93;100.00;100805.31;5266724;28;20048;-74
2023/02/25 05:26:28;;;;;;;13.02;3.28;;;;;;;4.88;100.00;100800.38;5269672;28;20025;-75
2023/02/25 05:28:59;;;;;;;13.15;2.75;;;;;;;4.87;100.00;100798.72;5268646;28;20033;-75
2023/02/25 05:31:30;;;;;;;11.73;2.50;;;;;;;4.69;100.00;100786.88;5266227;28;20024;-75
2023/02/25 05:34:02;;;;;;;19.05;4.13;;;;;;;4.75;100.00;100799.50;5271022;28;20509;-74
2023/02/25 05:36:33;;;;;;;11.73;2.75;;;;;;;4.63;100.00;100796.72;5268334;28;20449;-74
2023/02/25 05:39:05;;;;;;;14.15;2.88;;;;;;;4.61;100.00;100793.38;5266958;28;20033;-75
2023/02/25 05:41:37;;;;;;;11.88;2.95;;;;;;;4.47;100.00;100780.41;5248469;28;20028;-75
2023/02/25 05:44:10;;;;;;;11.32;3.05;;;;;;;4.53;100.00;100793.00;5267544;28;20027;-74
2023/02/25 05:46:41;;;;;;;17.08;3.60;;;;;;;4.54;100.00;100789.47;5265001;28;20076;-75
2023/02/25 05:49:12;;;;;;;10.75;2.85;;;;;;;4.54;100.00;100792.06;5271119;28;20068;-74
2023/02/25 05:51:44;;;;;;;13.77;2.60;;;;;;;4.58;100.00;100796.16;5269373;28;20029;-74
2023/02/25 05:54:16;;;;;;;13.23;2.00;;;;;;;4.60;100.00;100802.09;5251654;28;20439;-74
2023/02/25 05:56:50;;;;;;;11.15;2.28;;;;;;;4.61;100.00;100798.56;5261282;28;20032;-74
2023/02/25 05:59:22;;;;;;;11.18;2.28;;;;;;;4.52;100.00;100803.47;5264526;28;20035;-74
2023/02/25 06:01:53;;;;;;;12.40;2.30;;;;;;;4.54;100.00;100810.22;5264688;28;20013;-74
2023/02/25 06:04:24;;;;;;;10.60;2.50;;;;;;;4.55;100.00;100816.28;5265788;28;20114;-75
2023/02/25 06:06:56;;;;;;;9.05;2.85;;;;;;;4.52;100.00;100816.44;5248051;28;20052;-75
2023/02/25 06:09:28;;;;;;;8.63;2.38;;;;;;;4.50;100.00;100829.50;5263569;28;20025;-74
2023/02/25 06:11:59;;;;;;;10.48;2.65;;;;;;;4.49;100.00;100830.44;5245805;28;20047;-75
2023/02/25 06:14:31;;;;;;;13.10;3.00;;;;;;;4.47;100.00;100829.69;5263712;28;20635;-75
2023/02/25 06:17:02;;;;;;;9.43;2.10;;;;;;;4.44;100.00;100836.84;5268497;28;20024;-75
2023/02/25 06:19:33;;;;;;;11.05;2.17;;;;;;;4.46;100.00;100828.00;5264365;28;20036;-74
2023/02/25 06:22:05;;;;;;;14.18;3.72;;;;;;;4.45;100.00;100831.53;5264788;28;20032;-74
2023/02/25 06:24:36;;;;;;;11.35;2.85;;;;;;;4.47;100.00;100827.09;5268626;28;20363;-75
2023/02/25 06:27:07;;;;;;;11.88;2.13;;;;;;;4.40;100.00;100807.66;5266978;28;20037;-74
2023/02/25 06:29:40;;;;;;;9.35;2.47;;;;;;;4.35;100.00;100817.44;5264256;28;20075;-75
2023/02/25 06:32:12;;;;;;;16.05;3.00;;;;;;;4.38;100.00;100817.25;5266774;28;20033;-74
2023/02/25 06:34:43;;;;;;;9.93;2.45;;;;;;;4.38;100.00;100828.47;5261605;28;20041;-74
2023/02/25 06:37:15;;;;;;;13.27;2.47;;;;;;;4.33;100.00;100832.28;5265094;28;20061;-74
2023/02/25 06:39:46;;;;;;;18.63;3.17;;;;;;;4.39;100.00;100834.47;5244694;28;20403;-74
2023/02/25 06:42:18;;;;;;;13.07;3.08;;;;;;;4.41;100.00;100837.00;5262287;28;20020;-74
2023/02/25 06:44:50;;;;;;;12.48;2.58;;;;;;;4.43;100.00;100848.09;5264547;28;20024;-75
2023/02/25 06:47:21;;;;;;;11.02;2.55;;;;;;;4.37;100.00;100841.53;5257256;28;20124;-75
2023/02/25 06:49:53;;;;;;;12.20;2.65;;;;;;;4.36;100.00;100842.47;5269310;28;20162;-74
2023/02/25 06:52:24;;;;;;;12.45;2.22;;;;;;;4.48;100.00;100853.88;5266723;28;20372;-73
2023/02/25 06:54:55;;;;;;;9.45;2.15;;;;;;;4.49;100.00;100845.16;5262705;28;20032;-73
2023/02/25 06:57:27;;;;;;;12.07;2.75;;;;;;;4.48;100.00;100840.91;5266085;28;20039;-73
2023/02/25 06:59:58;;;;;;;14.25;2.47;;;;;;;4.51;100.00;100854.53;5260321;28;20067;-73
2023/02/25 07:02:29;;;;;;;16.85;2.83;;;;;;;4.56;100.00;100856.84;5258728;28;20035;-73
2023/02/25 07:05:01;;;;;;;12.43;3.38;;;;;;;4.49;100.00;100860.72;5247077;28;20037;-74
2023/02/25 07:07:33;;;;;;;10.38;2.33;;;;;;;4.51;100.00;100859.72;5260650;28;20095;-74
2023/02/25 07:10:05;;;;;;;13.15;3.17;;;;;;;4.45;100.00;100864.44;5266434;28;20017;-74
2023/02/25 07:12:36;;;;;;;11.07;2.00;;;;;;;4.48;100.00;100872.88;5266074;28;20033;-74
2023/02/25 07:15:08;;;;;;;8.52;2.20;;;;;;;4.55;100.00;100871.59;5259221;28;20031;-74
2023/02/25 07:17:39;;;;;;;13.27;2.35;;;;;;;4.59;100.00;100874.84;5265647;28;20148;-74
2023/02/25 07:20:11;;;;;;;14.77;2.35;;;;;;;4.59;100.00;100875.66;5260782;28;20037;-74
2023/02/25 07:22:43;;;;;;;12.73;2.63;;;;;;;4.53;100.00;100876.00;5266697;28;20127;-74
2023/02/25 07:25:14;;;;;;;11.77;2.60;;;;;;;4.56;100.00;100880.19;5260078;28;20032;-75
2023/02/25 07:27:46;;;;;;;12.57;2.97;;;;;;;4.57;100.00;100887.06;5261505;28;20024;-74
2023/02/25 07:30:17;;;;;;;15.00;2.63;;;;;;;4.64;100.00;100891.78;5249170;28;20037;-74
2023/02/25 07:32:49;;;;;;;10.40;2.35;;;;;;;4.55;100.00;100875.94;5265296;28;20027;-75
2023/02/25 07:35:20;;;;;;;7.28;2.03;;;;;;;4.65;100.00;100895.22;5262979;28;20090;-74
2023/02/25 07:37:51;;;;;;;13.38;2.58;;;;;;;4.63;100.00;100891.88;5262819;28;20111;-74
2023/02/25 07:40:22;;;;;;;12.95;2.83;;;;;;;4.58;100.00;100894.75;5262681;28;20028;-75
2023/02/25 07:42:54;;;;;;;13.20;2.55;;;;;;;4.57;100.00;100887.88;5261240;28;20070;-74
2023/02/25 07:45:25;;;;;;;14.93;4.15;;;;;;;4.55;100.00;100892.34;5266891;28;20035;-74
2023/02/25 07:47:56;;;;;;;16.80;3.40;;;;;;;4.64;100.00;100898.75;5264034;28;20028;-74
2023/02/25 07:50:28;;;;;;;14.80;3.67;;;;;;;4.48;100.00;100905.75;5264720;28;20170;-74
2023/02/25 07:52:59;;;;;;;12.88;2.75;;;;;;;4.57;100.00;100905.22;5269644;28;20032;-75
2023/02/25 07:55:30;;;;;;;11.98;2.42;;;;;;;4.58;100.00;100909.47;5267349;28;20055;-74
2023/02/25 07:58:02;;;;;;;12.52;2.88;;;;;;;4.50;100.00;100906.50;5266056;28;20032;-74
2023/02/25 08:00:33;;;;;;;11.40;2.97;;;;;;;4.56;100.00;100914.75;5239349;28;20509;-74
2023/02/25 08:03:04;;;;;;;13.63;3.15;;;;;;;4.53;100.00;100895.94;5246717;28;20033;-75
2023/02/25 08:05:36;;;;;;;17.35;2.88;;;;;;;4.61;100.00;100884.19;5246045;28;20634;-74
2023/02/25 08:08:07;;;;;;;11.52;2.72;;;;;;;4.78;100.00;100908.31;5246449;28;20139;-74
2023/02/25 08:10:39;;;;;;;9.95;3.03;;;;;;;4.90;100.00;100910.16;5243994;28;20021;-74
2023/02/25 08:13:10;;;;;;;16.45;3.97;;;;;;;4.93;100.00;100920.38;5271915;28;20491;-74
2023/02/25 08:15:43;;;;;;;16.95;2.47;;;;;;;4.99;100.00;100916.56;5267028;28;20393;-74
2023/02/25 08:18:14;;;;;;;12.50;2.90;;;;;;;5.16;100.00;100923.34;5266140;28;20393;-74
2023/02/25 08:20:46;;;;;;;17.42;2.50;;;;;;;5.10;100.00;100920.19;5265249;28;20028;-75
2023/02/25 08:23:18;;;;;;;18.40;3.08;;;;;;;5.20;100.00;100925.66;5264693;28;20369;-75
2023/02/25 08:25:54;;;;;;;15.48;3.63;;;;;;;5.34;100.00;100917.00;5264339;28;20556;-74
2023/02/25 08:28:30;;;;;;;26.42;4.03;;;;;;;5.45;100.00;100921.53;5267760;28;20103;-75
2023/02/25 08:31:05;;;;;;;15.50;3.35;;;;;;;5.54;100.00;100919.22;5267329;28;20262;-74
2023/02/25 08:33:38;;;;;;;19.98;3.53;;;;;;;5.60;100.00;100938.78;5264872;28;20162;-74
2023/02/25 08:36:16;;;;;;;17.23;3.83;;;;;;;5.66;100.00;100933.19;5262910;28;20467;-74
2023/02/25 08:38:49;;;;;;;19.95;3.60;;;;;;;5.62;100.00;100931.72;5264760;28;20155;-75
2023/02/25 08:41:21;;;;;;;19.05;3.55;;;;;;;5.64;100.00;100936.81;5245522;28;20060;-74
2023/02/25 08:43:54;;;;;;;15.20;3.50;;;;;;;5.71;100.00;100932.91;5265387;28;20620;-75
2023/02/25 08:46:28;;;;;;;11.80;2.65;;;;;;;5.89;100.00;100934.34;5249339;28;20039;-75
2023/02/25 08:49:00;;;;;;;17.25;3.47;;;;;;;5.81;100.00;100921.00;5264542;28;20044;-75
2023/02/25 08:51:35;;;;;;;17.88;3.20;;;;;;;5.89;100.00;100925.72;5261946;28;20064;-74
2023/02/25 08:54:11;;;;;;;12.07;2.80;;;;;;;6.08;100.00;100944.44;5264709;28;20032;-75
2023/02/25 08:56:43;;;;;;;12.65;2.95;;;;;;;6.06;100.00;100941.09;5263931;28;20029;-75
2023/02/25 08:59:20;;;;;;;16.92;3.65;;;;;;;6.12;100.00;100950.28;5254016;28;20035;-75
2023/02/25 09:01:53;;;;;;;16.20;2.92;;;;;;;6.08;100.00;100940.06;5264249;28;20029;-75
2023/02/25 09:04:25;;;;;;;11.93;3.23;;;;;;;6.25;100.00;100948.53;5263450;28;20198;-74
2023/02/25 09:06:57;;;;;;;17.35;3.75;;;;;;;6.28;100.00;100943.97;5259309;28;20361;-75
2023/02/25 09:09:28;;;;;;;21.10;4.10;;;;;;;6.34;100.00;100950.56;5265919;28;20285;-75
2023/02/25 09:12:00;;;;;;;14.35;3.15;;;;;;;6.42;100.00;100948.28;5265715;28;20035;-75
2023/02/25 09:14:36;;;;;;;16.10;3.13;;;;;;;6.33;100.00;100948.91;5266481;28;20046;-74
2023/02/25 09:17:07;;;;;;;14.43;3.50;;;;;;;6.47;100.00;100956.59;5265376;28;20029;-75
2023/02/25 09:19:39;;;;;;;24.98;3.90;;;;;;;6.49;100.00;100952.16;5260341;28;20558;-75
2023/02/25 09:22:10;;;;;;;20.77;4.05;;;;;;;6.53;100.00;100951.00;5269617;28;20085;-75
2023/02/25 09:24:41;;;;;;;15.95;3.65;;;;;;;6.57;100.00;100968.09;5267813;28;20481;-76
2023/02/25 09:27:12;;;;;;;18.40;4.20;;;;;;;6.62;100.00;100956.53;5262393;28;20054;-75
2023/02/25 09:29:44;;;;;;;15.32;3.33;;;;;;;6.58;100.00;100953.31;5267210;28;20194;-75
2023/02/25 09:32:18;;;;;;;16.35;3.28;;;;;;;6.75;100.00;100973.03;5266763;28;20111;-76
2023/02/25 09:34:50;;;;;;;12.75;2.80;;;;;;;6.78;100.00;100981.47;5263398;28;20033;-76
2023/02/25 09:37:22;;;;;;;11.50;2.72;;;;;;;6.89;100.00;100979.91;5263156;28;20025;-75
2023/02/25 09:39:53;;;;;;;21.85;3.85;;;;;;;6.91;100.00;100988.44;5258272;28;20036;-76
2023/02/25 09:42:49;;;;;;;12.55;2.80;;;;;;;7.10;100.00;100986.28;5264193;28;20025;-76
2023/02/25 09:45:24;;;;;;;12.52;2.83;;;;;;;7.05;100.00;100983.16;5258938;28;20063;-75
2023/02/25 09:48:24;;;;;;;10.75;3.30;;;;;;;7.40;100.00;100993.75;5261091;28;20024;-76
2023/02/25 09:51:02;;;;;;;20.35;3.72;;;;;;;7.39;100.00;100980.84;5254754;28;20478;-76
2023/02/25 09:53:41;;;;;;;15.20;3.20;;;;;;;7.57;100.00;101001.22;5264024;28;20029;-75
2023/02/25 09:56:16;;;;;;;14.13;2.88;;;;;;;7.52;100.00;100987.69;5262667;28;20102;-75
2023/02/25 09:58:55;;;;;;;10.75;2.63;;;;;;;7.69;100.00;100994.34;5265912;28;20575;-76
2023/02/25 10:01:35;;;;;;;10.18;2.45;;;;;;;7.65;100.00;101003.31;5264346;28;20016;-76
2023/02/25 10:04:26;;;;;;;11.27;2.40;;;;;;;7.71;100.00;101012.47;5245319;28;20116;-76
2023/02/25 10:07:07;;;;;;;10.48;2.72;;;;;;;7.72;100.00;101004.53;5265468;28;20024;-76
2023/02/25 10:10:01;;;;;;;12.93;2.80;;;;;;;7.85;100.00;101017.56;5265996;28;20065;-75
2023/02/25 10:12:40;;;;;;;;;;;;;;;8.20;100.00;101011.59;5266427;28;20047;-76
2023/02/25 10:15:29;;;;;;;11.55;2.83;;;;;;;7.86;100.00;101016.63;5265444;28;20436;-75
2023/02/25 10:18:13;;;;;;;13.90;3.03;;;;;;;7.63;100.00;101015.63;5262674;28;20449;-76
2023/02/25 10:20:56;;;;;;;9.07;2.90;;;;;;;7.85;100.00;101029.78;5264979;28;20033;-76
2023/02/25 10:23:51;;;;;;;13.35;3.30;;;;;;;7.76;100.00;101031.25;5259154;28;20032;-76
2023/02/25 10:26:28;;;;;;;9.55;2.00;;;;;;;7.52;100.00;101026.78;5268273;28;20051;-76
2023/02/25 10:29:04;;;;;;;8.75;2.05;;;;;;;7.40;100.00;101008.56;5261795;28;20384;-76
2023/02/25 10:31:38;;;;;;;10.20;1.73;;;;;;;7.51;100.00;101029.53;5246625;28;20032;-76
2023/02/25 10:34:22;;;;;;;9.82;2.75;;;;;;;7.60;100.00;101020.22;5267354;28;20025;-76
2023/02/25 10:36:59;;;;;;;12.60;3.08;;;;;;;7.54;100.00;101029.31;5265238;28;20047;-76
2023/02/25 10:39:30;;;;;;;8.82;1.80;;;;;;;7.46;100.00;101036.81;5266804;28;20029;-76
2023/02/25 10:42:02;;;;;;;9.75;2.28;;;;;;;7.60;100.00;101038.47;5267941;28;20514;-76
2023/02/25 10:44:34;;;;;;;8.82;2.10;;;;;;;7.65;100.00;101037.22;5265077;28;20032;-76
2023/02/25 10:47:10;;;;;;;7.28;1.40;;;;;;;7.83;100.00;101048.13;5263898;28;20036;-76
2023/02/25 10:50:10;;;;;;;7.43;2.13;;;;;;;7.95;100.00;101051.66;5260924;28;20024;-76
2023/02/25 10:52:55;;;;;;;8.40;2.00;;;;;;;7.91;100.00;101047.59;5263336;28;20397;-75
2023/02/25 10:55:50;;;;;;;6.05;1.60;;;;;;;7.94;100.00;101056.03;5263259;28;20399;-76
2023/02/25 10:58:24;;;;;;;8.63;1.70;;;;;;;7.90;100.00;101059.81;5267186;28;20031;-76
2023/02/25 11:01:12;;;;;;;9.77;1.65;;;;;;;8.13;100.00;101045.13;5265312;28;20025;-76
2023/02/25 11:04:01;;;;;;;8.82;2.58;;;;;;;8.42;100.00;101047.47;5260148;28;20506;-76
2023/02/25 11:06:36;;;;;;;9.25;1.70;;;;;;;8.18;100.00;101045.66;5258509;28;20040;-76
2023/02/25 11:09:20;;;;;;;7.25;1.95;;;;;;;8.61;100.00;101049.56;5264920;28;20375;-76
2023/02/25 11:11:53;;;;;;;;;;;;;;;9.19;100.00;101047.84;5260229;28;20091;-76
2023/02/25 11:14:30;;;;;;;9.27;1.70;;;;;;;8.81;100.00;101051.53;5265015;28;20341;-76
2023/02/25 11:17:11;;;;;;;8.45;2.30;;;;;;;8.78;100.00;101057.81;5269241;28;20039;-76
2023/02/25 11:19:46;;;;;;;11.50;2.40;;;;;;;8.70;100.00;101059.34;5261267;28;20763;-76
2023/02/25 11:22:41;;;;;;;6.82;2.00;;;;;;;8.74;100.00;101060.78;5269592;28;20028;-76
2023/02/25 11:25:19;;;;;;;7.95;1.70;;;;;;;8.61;100.00;101062.63;5264298;28;20021;-76
2023/02/25 11:27:57;;;;;;;7.60;1.63;;;;;;;8.64;100.00;101054.59;5261196;28;20032;-76
2023/02/25 11:30:36;;;;;;;6.60;1.67;;;;;;;8.63;100.00;101048.50;5263254;28;20072;-77
2023/02/25 11:33:23;;;;;;;9.13;2.33;;;;;;;8.88;100.00;101057.97;5269081;28;20398;-76
2023/02/25 11:36:00;;;;;;;10.13;2.35;;;;;;;8.92;100.00;101062.03;5262105;28;20029;-76
2023/02/25 11:38:37;;;;;;;6.15;1.58;;;;;;;9.15;100.00;101056.88;5264944;28;20081;-76
2023/02/25 11:41:19;;;;;;;9.10;2.28;;;;;;;9.20;100.00;101070.41;5260688;28;20029;-77
2023/02/25 11:43:53;;;;;;;5.68;1.48;;;;;;;9.06;100.00;101060.19;5239978;28;20047;-76
2023/02/25 11:46:29;;;;;;;6.63;1.60;;;;;;;9.11;100.00;101076.34;5249324;28;20020;-76
2023/02/25 11:49:10;;;;;;;6.90;2.20;;;;;;;9.12;100.00;101076.22;5264600;28;20444;-77
2023/02/25 11:51:50;;;;;;;4.32;1.25;;;;;;;9.14;100.00;101076.13;5267835;28;20036;-76
2023/02/25 11:54:35;;;;;;;7.85;1.73;;;;;;;9.11;100.00;101069.31;5268185;28;20450;-77
2023/02/25 11:57:12;;;;;;;8.38;1.60;;;;;;;9.05;100.00;101061.09;5262051;28;20432;-76